Weather reports worldwide

Advertisment
Dunstaffnage, United Kingdom (99006): temperature & dewpoint: 21.04.2017 04:00:00 - 27.04.2017 04:00:00 (BST)Dunstaffnage, United Kingdom (99006): temperature -20cm: 21.04.2017 04:00:00 - 27.04.2017 04:00:00 (BST)Dunstaffnage, United Kingdom (99006): wind speed & gusts: 21.04.2017 04:00:00 - 27.04.2017 04:00:00 (BST)Dunstaffnage, United Kingdom (99006): wind direction: 21.04.2017 04:00:00 - 27.04.2017 04:00:00 (BST)Dunstaffnage, United Kingdom (99006): precipitation: 21.04.2017 04:00:00 - 27.04.2017 04:00:00 (BST)
Date & Time tt [°C] td [°C] tt -20cm [°C] ff [km/h] ff [kn] fx [km/h] fx [kn] dd rr [mm]
27.04.2017 04:00:00 - - - - - - - - 0,0
27.04.2017 03:00:00 7,9 4,5 - 26 14 - - WNW 0,0
27.04.2017 02:00:00 8,1 4,8 - 34 18 - - WNW 0,0
27.04.2017 01:00:00 7,8 6,2 - 16 9 - - W 0,0
27.04.2017 00:00:00 7,8 4,6 - 13 7 - - WSW 0,0
26.04.2017 23:00:00 8,0 4,6 - 16 9 - - WSW 0,0
26.04.2017 22:00:00 8,1 4,7 - 16 9 - - W 0,0
26.04.2017 21:00:00 8,4 3,2 - 15 8 - - WNW 0,0
26.04.2017 20:00:00 8,5 2,8 - 16 9 - - W 0,0
26.04.2017 19:00:00 9,0 2,9 - 18 10 - - WNW 0,0
26.04.2017 18:00:00 9,2 2,9 - 16 9 - - W 0,0
26.04.2017 17:00:00 9,0 3,2 - 16 9 - - WSW 0,0
26.04.2017 16:00:00 8,9 2,3 - 16 9 - - WSW 0,0
26.04.2017 15:00:00 8,8 1,9 - 13 7 - - WSW 0,0
26.04.2017 14:00:00 8,8 1,9 - 13 7 - - W 0,0
26.04.2017 13:00:00 8,5 1,4 - 8 4 - - W 0,0
26.04.2017 12:00:00 7,3 0,6 - 9 5 - - NW 0,0
26.04.2017 11:00:00 6,7 0,7 - 5 3 - - WNW 0,0
26.04.2017 10:00:00 5,9 0,6 8,2 11 6 - - WNW 0,0
26.04.2017 09:00:00 4,9 -0,1 - 8 4 - - WNW 0,0
26.04.2017 08:00:00 4,6 -0,1 - 9 5 - - NW 0,0
26.04.2017 07:00:00 4,4 -0,4 - 22 12 - - WNW 0,0
26.04.2017 06:00:00 4,8 -2,2 - 15 8 - - NW 0,0
26.04.2017 05:00:00 4,6 -1,1 - 13 7 - - NW 0,0
26.04.2017 04:00:00 4,4 -1,9 - 11 6 - - NW 0,0
26.04.2017 03:00:00 4,6 -1,3 - 15 8 - - NW 0,0
26.04.2017 02:00:00 4,4 -0,7 - 13 7 - - NW 0,0
26.04.2017 01:00:00 4,3 -1,1 - 9 5 - - NNW 0,0
26.04.2017 00:00:00 4,6 -1,2 - 9 5 - - N 0,0
25.04.2017 23:00:00 5,1 -0,9 - 13 7 - - NNE 0,0
25.04.2017 22:00:00 5,5 -1,7 - 11 6 - - N 0,0
25.04.2017 21:00:00 5,7 -1,8 - 9 5 - - NNW 0,0
25.04.2017 20:00:00 6,0 -1,2 - 13 7 - - N 0,0
25.04.2017 19:00:00 6,8 0,2 - 28 15 - - NE 0,0
25.04.2017 18:00:00 7,5 -2,3 - 16 9 - - N 0,0
25.04.2017 17:00:00 8,2 -3,1 - 18 10 - - N 0,0
25.04.2017 16:00:00 8,5 -0,2 - 21 11 - - NNW 0,0
25.04.2017 15:00:00 8,7 -0,1 - 16 9 - - N 0,0
25.04.2017 14:00:00 8,6 -0,7 - 18 10 - - NNE 0,0
25.04.2017 13:00:00 8,0 0,9 - 13 7 - - NNW 0,0
25.04.2017 12:00:00 7,1 0,1 - 16 9 - - NNW 0,0
25.04.2017 11:00:00 6,5 -1,3 - 21 11 - - NW 0,0
25.04.2017 10:00:00 5,7 -0,1 8,0 21 11 - - NW 0,0
25.04.2017 09:00:00 5,6 -0,9 - 21 11 - - NW 0,0
25.04.2017 08:00:00 5,3 0,9 - 9 5 - - N 0,0
25.04.2017 07:00:00 3,3 -0,1 - 5 3 - - N 0,0
25.04.2017 06:00:00 3,7 1,1 - 8 4 - - N 0,0
25.04.2017 05:00:00 3,8 0,9 - 16 9 - - NW 0,0
25.04.2017 04:00:00 3,0 0,8 - 9 5 - - NW 0,2
25.04.2017 03:00:00 3,3 0,5 - 26 14 - - WNW 0,0
25.04.2017 02:00:00 2,9 -2,6 - 5 3 - - NNE 0,0
25.04.2017 01:00:00 3,3 -1,8 - 26 14 - - NE 0,0
25.04.2017 00:00:00 3,3 -2,6 - 24 13 48 26 NNE 0,2
24.04.2017 23:00:00 4,2 1,4 - 16 9 - - NNE 0,0
24.04.2017 22:00:00 3,8 1,0 - 9 5 - - NNW 0,0
24.04.2017 21:00:00 4,6 0,7 - 18 10 - - NW 0,0
24.04.2017 20:00:00 3,7 0,7 - 13 7 - - NW 0,2
24.04.2017 19:00:00 2,2 1,5 - 18 10 - - WSW 0,8
24.04.2017 18:00:00 3,7 -0,3 - 29 16 50 27 WNW 0,0
24.04.2017 17:00:00 2,9 0,7 - 44 24 68 37 WNW 0,0
24.04.2017 16:00:00 3,7 -1,7 - 29 16 61 33 NW 0,0
24.04.2017 15:00:00 4,3 -2,2 - 18 10 - - NNW 0,0
24.04.2017 14:00:00 3,9 0,7 - 29 16 65 35 WNW 0,2
24.04.2017 13:00:00 5,5 1,2 - 34 18 67 36 WNW 0,0
24.04.2017 12:00:00 5,6 -1,0 - 42 23 70 38 WNW 0,2
24.04.2017 11:00:00 4,9 1,9 - 46 25 70 38 WNW 0,0
24.04.2017 10:00:00 4,4 1,6 9,2 28 15 63 34 W 0,0
24.04.2017 09:00:00 4,4 0,1 - 44 24 63 34 WNW 0,0
24.04.2017 08:00:00 6,0 -0,4 - 28 15 - - WNW 0,0
24.04.2017 07:00:00 5,5 1,1 - 21 11 - - W 0,0
24.04.2017 06:00:00 6,3 0,9 - 24 13 - - WNW 0,0
24.04.2017 05:00:00 6,4 2,0 - 18 10 - - WNW 0,0
24.04.2017 04:00:00 7,0 2,0 - 21 11 - - WNW 0,0
24.04.2017 03:00:00 7,0 4,3 - 24 13 - - W 0,0
24.04.2017 02:00:00 7,2 4,4 - 24 13 - - WNW 0,0
24.04.2017 01:00:00 7,7 6,3 - 29 16 46 25 WNW 0,6
24.04.2017 00:00:00 9,3 6,2 - 31 17 46 25 W 0,0
23.04.2017 23:00:00 9,3 6,8 - 29 16 - - WSW 0,0
23.04.2017 22:00:00 9,1 7,2 - 24 13 - - W 0,6
23.04.2017 21:00:00 7,9 7,1 - 21 11 - - SW 0,6
23.04.2017 20:00:00 8,5 5,5 - 21 11 - - SSW 0,0
23.04.2017 19:00:00 9,0 5,8 - 16 9 - - SW 0,0
23.04.2017 18:00:00 9,4 4,6 - 18 10 - - SW 0,0
23.04.2017 17:00:00 9,6 3,6 - 18 10 - - SW 0,0
23.04.2017 16:00:00 10,9 3,7 - 16 9 - - SW 0,0
23.04.2017 15:00:00 10,5 4,6 - 24 13 - - WSW 0,0
23.04.2017 14:00:00 9,5 2,6 - 18 10 - - SSW 0,0
23.04.2017 13:00:00 9,7 3,0 - 18 10 - - SW 0,0
23.04.2017 12:00:00 9,5 4,4 - 15 8 - - SW 0,0
23.04.2017 11:00:00 9,1 3,7 - 11 6 - - SW 0,0
23.04.2017 10:00:00 8,9 4,2 9,0 13 7 - - SSW 0,0
23.04.2017 09:00:00 7,8 5,2 - 4 2 - - NE 0,0
23.04.2017 08:00:00 5,5 4,5 - 4 2 - - NNE 0,0
23.04.2017 07:00:00 4,0 3,2 - 4 2 - - NNE 0,0
23.04.2017 06:00:00 4,3 3,6 - 5 3 - - SE 0,0
23.04.2017 05:00:00 3,7 2,7 - 0 0 - - N 0,0
23.04.2017 04:00:00 4,3 3,2 - 2 1 - - ENE 0,0
23.04.2017 03:00:00 3,0 1,2 - 2 1 - - SW 0,0
23.04.2017 02:00:00 4,8 1,8 - 2 1 - - SW 0,0
23.04.2017 01:00:00 6,8 2,1 - 9 5 - - W 0,0
23.04.2017 00:00:00 7,2 1,9 - 15 8 - - WNW 0,0
22.04.2017 23:00:00 7,5 1,9 - 11 6 - - WNW 0,0
22.04.2017 22:00:00 7,8 2,7 - 15 8 - - WNW 0,0
22.04.2017 21:00:00 7,9 2,2 - 13 7 - - WNW 0,0
22.04.2017 20:00:00 8,5 1,5 - 18 10 - - WNW 0,0
22.04.2017 19:00:00 9,8 1,3 - 11 6 - - NW 0,0
22.04.2017 18:00:00 10,2 1,8 - 21 11 - - WNW 0,0
22.04.2017 17:00:00 10,0 1,7 - 21 11 - - WNW 0,0
22.04.2017 16:00:00 9,5 1,7 - 26 14 - - WNW 0,0
22.04.2017 15:00:00 9,4 2,3 - 18 10 - - W 0,0
22.04.2017 14:00:00 10,0 1,8 - 21 11 - - WNW 0,0
22.04.2017 13:00:00 11,1 2,8 - 15 8 - - WSW 0,0
22.04.2017 12:00:00 9,1 1,1 - 13 7 - - W 0,0
22.04.2017 11:00:00 9,1 3,9 - 15 8 - - WNW 0,0
22.04.2017 10:00:00 7,3 2,1 9,2 15 8 - - W 0,0
22.04.2017 09:00:00 6,3 3,2 - 8 4 - - W 0,0
22.04.2017 08:00:00 4,3 3,4 - 2 1 - - SE 0,0
22.04.2017 07:00:00 2,8 1,2 - 2 1 - - S 0,0
22.04.2017 06:00:00 5,3 1,4 - 4 2 - - NNW 0,0
22.04.2017 05:00:00 6,4 2,1 - 13 7 - - WNW 0,0
22.04.2017 04:00:00 6,3 1,8 - 13 7 - - W 0,0
22.04.2017 03:00:00 6,1 1,8 - 13 7 - - WNW 0,0
22.04.2017 02:00:00 6,3 1,9 - 15 8 - - WNW 0,0
22.04.2017 01:00:00 6,7 2,2 - 16 9 - - WNW 0,0
22.04.2017 00:00:00 6,9 2,8 - 21 11 - - WNW 0,0
21.04.2017 23:00:00 7,4 3,0 - 24 13 - - WNW 0,0
21.04.2017 22:00:00 7,4 2,7 - 24 13 - - WNW 0,0
21.04.2017 21:00:00 7,9 2,9 - 26 14 - - WNW 0,0
21.04.2017 20:00:00 8,7 2,0 - 28 15 - - WNW 0,0
21.04.2017 19:00:00 9,1 2,9 - 29 16 - - WNW 0,0
21.04.2017 18:00:00 9,9 3,4 - 26 14 - - WNW 0,0
21.04.2017 17:00:00 10,1 3,1 - 28 15 - - WNW 0,0
21.04.2017 16:00:00 10,2 3,8 - 21 11 - - WNW 0,0
21.04.2017 15:00:00 10,7 5,4 - 18 10 - - WNW 0,0
21.04.2017 14:00:00 10,4 5,8 - 24 13 - - WNW 0,0
21.04.2017 13:00:00 10,6 6,5 - 26 14 - - WNW 0,0
21.04.2017 12:00:00 9,1 6,0 - 22 12 - - WNW 0,2
21.04.2017 11:00:00 9,7 8,8 - 28 15 - - W 0,2
21.04.2017 10:00:00 10,3 9,1 10,0 29 16 - - W 0,0
21.04.2017 09:00:00 10,6 8,5 - 26 14 - - W 0,0
21.04.2017 08:00:00 10,4 8,8 - 24 13 - - W 0,0
21.04.2017 07:00:00 10,1 8,9 - 28 15 46 25 W 0,0
21.04.2017 06:00:00 9,9 9,2 - 18 10 - - WSW 0,2
21.04.2017 05:00:00 10,0 9,3 - 21 11 - - WSW 0,0
21.04.2017 04:00:00 10,0 9,4 - 15 8 - - SW 0,2

tt = temperature
td = dewpoint
tt -20cm = temperature -20cm
ff = wind speed
fx = gusts
dd = wind direction
rr = precipitation

Next stations